sensor_id;sensor_type;location;lat;lon;timestamp;temperature;humidity
22544;DHT22;11438;52.044;8.716;2023-12-20T00:02:12;11.30;99.90
22544;DHT22;11438;52.044;8.716;2023-12-20T00:04:37;11.20;99.90
22544;DHT22;11438;52.044;8.716;2023-12-20T00:07:03;11.30;99.90
22544;DHT22;11438;52.044;8.716;2023-12-20T00:09:28;11.30;99.90
22544;DHT22;11438;52.044;8.716;2023-12-20T00:11:54;11.20;99.90
22544;DHT22;11438;52.044;8.716;2023-12-20T00:14:19;11.20;99.90
22544;DHT22;11438;52.044;8.716;2023-12-20T00:16:45;11.20;99.90
22544;DHT22;11438;52.044;8.716;2023-12-20T00:19:11;11.10;99.90
22544;DHT22;11438;52.044;8.716;2023-12-20T00:21:36;11.10;99.90
22544;DHT22;11438;52.044;8.716;2023-12-20T00:24:02;11.10;99.90
22544;DHT22;11438;52.044;8.716;2023-12-20T00:26:27;11.10;99.90
22544;DHT22;11438;52.044;8.716;2023-12-20T00:28:53;11.10;99.90
22544;DHT22;11438;52.044;8.716;2023-12-20T00:31:19;11.00;99.90
22544;DHT22;11438;52.044;8.716;2023-12-20T00:33:44;11.00;99.90
22544;DHT22;11438;52.044;8.716;2023-12-20T00:36:11;11.00;99.90
22544;DHT22;11438;52.044;8.716;2023-12-20T00:38:37;11.00;99.90
22544;DHT22;11438;52.044;8.716;2023-12-20T00:41:02;11.00;99.90
22544;DHT22;11438;52.044;8.716;2023-12-20T00:43:28;11.00;99.90
22544;DHT22;11438;52.044;8.716;2023-12-20T00:45:53;11.00;99.90
22544;DHT22;11438;52.044;8.716;2023-12-20T00:48:19;10.90;99.90
22544;DHT22;11438;52.044;8.716;2023-12-20T00:50:44;11.00;99.90
22544;DHT22;11438;52.044;8.716;2023-12-20T00:53:10;10.90;99.90
22544;DHT22;11438;52.044;8.716;2023-12-20T00:55:35;10.90;99.90
22544;DHT22;11438;52.044;8.716;2023-12-20T00:58:01;10.90;99.90
22544;DHT22;11438;52.044;8.716;2023-12-20T01:00:26;10.90;99.90
22544;DHT22;11438;52.044;8.716;2023-12-20T01:02:52;10.90;99.90
22544;DHT22;11438;52.044;8.716;2023-12-20T01:05:18;10.90;99.90
22544;DHT22;11438;52.044;8.716;2023-12-20T01:07:44;10.80;99.90
22544;DHT22;11438;52.044;8.716;2023-12-20T01:10:10;10.90;99.90
22544;DHT22;11438;52.044;8.716;2023-12-20T01:12:36;10.80;99.90
22544;DHT22;11438;52.044;8.716;2023-12-20T01:15:02;10.80;99.90
22544;DHT22;11438;52.044;8.716;2023-12-20T01:17:27;10.80;99.90
22544;DHT22;11438;52.044;8.716;2023-12-20T01:19:53;10.70;99.90
22544;DHT22;11438;52.044;8.716;2023-12-20T01:22:18;10.70;99.90
22544;DHT22;11438;52.044;8.716;2023-12-20T01:24:44;10.70;99.90
22544;DHT22;11438;52.044;8.716;2023-12-20T01:27:09;10.70;99.90
22544;DHT22;11438;52.044;8.716;2023-12-20T01:29:35;10.70;99.90
22544;DHT22;11438;52.044;8.716;2023-12-20T01:32:00;10.70;99.90
22544;DHT22;11438;52.044;8.716;2023-12-20T01:34:26;10.70;99.90
22544;DHT22;11438;52.044;8.716;2023-12-20T01:36:52;10.70;99.90
22544;DHT22;11438;52.044;8.716;2023-12-20T01:39:17;10.70;99.90
22544;DHT22;11438;52.044;8.716;2023-12-20T01:41:43;10.70;99.90
22544;DHT22;11438;52.044;8.716;2023-12-20T01:44:08;10.60;99.90
22544;DHT22;11438;52.044;8.716;2023-12-20T01:46:34;10.60;99.90
22544;DHT22;11438;52.044;8.716;2023-12-20T01:49:00;10.60;99.90
22544;DHT22;11438;52.044;8.716;2023-12-20T01:51:26;10.60;99.90
22544;DHT22;11438;52.044;8.716;2023-12-20T01:53:53;10.60;99.90
22544;DHT22;11438;52.044;8.716;2023-12-20T01:56:20;10.60;99.90
22544;DHT22;11438;52.044;8.716;2023-12-20T01:58:46;10.60;99.90
22544;DHT22;11438;52.044;8.716;2023-12-20T02:01:13;10.60;99.90
22544;DHT22;11438;52.044;8.716;2023-12-20T02:03:42;10.50;99.90
22544;DHT22;11438;52.044;8.716;2023-12-20T02:06:08;10.50;99.90
22544;DHT22;11438;52.044;8.716;2023-12-20T02:08:35;10.50;99.90
22544;DHT22;11438;52.044;8.716;2023-12-20T02:11:01;10.50;99.90
22544;DHT22;11438;52.044;8.716;2023-12-20T02:13:26;10.50;99.90
22544;DHT22;11438;52.044;8.716;2023-12-20T02:15:52;10.40;99.90
22544;DHT22;11438;52.044;8.716;2023-12-20T02:18:18;10.40;99.90
22544;DHT22;11438;52.044;8.716;2023-12-20T02:20:43;10.40;99.90
22544;DHT22;11438;52.044;8.716;2023-12-20T02:23:09;10.40;99.90
22544;DHT22;11438;52.044;8.716;2023-12-20T02:25:34;10.40;99.90
22544;DHT22;11438;52.044;8.716;2023-12-20T02:28:00;10.30;99.90
22544;DHT22;11438;52.044;8.716;2023-12-20T02:30:26;10.20;99.90
22544;DHT22;11438;52.044;8.716;2023-12-20T02:32:52;10.20;99.90
22544;DHT22;11438;52.044;8.716;2023-12-20T02:35:18;10.20;99.90
22544;DHT22;11438;52.044;8.716;2023-12-20T02:37:44;10.20;99.90
22544;DHT22;11438;52.044;8.716;2023-12-20T02:40:10;10.20;99.90
22544;DHT22;11438;52.044;8.716;2023-12-20T02:42:35;10.20;99.90
22544;DHT22;11438;52.044;8.716;2023-12-20T02:45:01;10.20;99.90
22544;DHT22;11438;52.044;8.716;2023-12-20T02:47:26;10.20;99.90
22544;DHT22;11438;52.044;8.716;2023-12-20T02:49:52;10.20;99.90
22544;DHT22;11438;52.044;8.716;2023-12-20T02:52:18;10.20;99.90
22544;DHT22;11438;52.044;8.716;2023-12-20T02:54:44;10.20;99.90
22544;DHT22;11438;52.044;8.716;2023-12-20T02:57:09;10.20;99.90
22544;DHT22;11438;52.044;8.716;2023-12-20T02:59:34;10.10;99.90
22544;DHT22;11438;52.044;8.716;2023-12-20T03:02:00;10.20;99.90
22544;DHT22;11438;52.044;8.716;2023-12-20T03:04:25;10.20;99.90
22544;DHT22;11438;52.044;8.716;2023-12-20T03:06:51;10.10;99.90
22544;DHT22;11438;52.044;8.716;2023-12-20T03:09:16;10.20;99.90
22544;DHT22;11438;52.044;8.716;2023-12-20T03:11:42;10.20;99.90
22544;DHT22;11438;52.044;8.716;2023-12-20T03:14:07;10.20;99.90
22544;DHT22;11438;52.044;8.716;2023-12-20T03:16:33;10.20;99.90
22544;DHT22;11438;52.044;8.716;2023-12-20T03:18:58;10.20;99.90
22544;DHT22;11438;52.044;8.716;2023-12-20T03:21:24;10.20;99.90
22544;DHT22;11438;52.044;8.716;2023-12-20T03:23:49;10.20;99.90
22544;DHT22;11438;52.044;8.716;2023-12-20T03:26:15;10.20;99.90
22544;DHT22;11438;52.044;8.716;2023-12-20T03:28:40;10.20;99.90
22544;DHT22;11438;52.044;8.716;2023-12-20T03:31:06;10.30;99.90
22544;DHT22;11438;52.044;8.716;2023-12-20T03:33:31;10.30;99.90
22544;DHT22;11438;52.044;8.716;2023-12-20T03:35:56;10.30;99.90
22544;DHT22;11438;52.044;8.716;2023-12-20T03:38:22;10.20;99.90
22544;DHT22;11438;52.044;8.716;2023-12-20T03:40:49;10.20;99.90
22544;DHT22;11438;52.044;8.716;2023-12-20T03:43:15;10.20;99.90
22544;DHT22;11438;52.044;8.716;2023-12-20T03:45:42;10.30;99.90
22544;DHT22;11438;52.044;8.716;2023-12-20T03:48:07;10.20;99.90
22544;DHT22;11438;52.044;8.716;2023-12-20T03:50:33;10.20;99.90
22544;DHT22;11438;52.044;8.716;2023-12-20T03:52:59;10.30;99.90
22544;DHT22;11438;52.044;8.716;2023-12-20T03:55:24;10.30;99.90
22544;DHT22;11438;52.044;8.716;2023-12-20T03:57:50;10.30;99.90
22544;DHT22;11438;52.044;8.716;2023-12-20T04:00:15;10.30;99.90
22544;DHT22;11438;52.044;8.716;2023-12-20T04:02:41;10.30;99.90
22544;DHT22;11438;52.044;8.716;2023-12-20T04:05:08;10.30;99.90
22544;DHT22;11438;52.044;8.716;2023-12-20T04:07:34;10.30;99.90
22544;DHT22;11438;52.044;8.716;2023-12-20T04:10:00;10.30;99.90
22544;DHT22;11438;52.044;8.716;2023-12-20T04:12:27;10.30;99.90
22544;DHT22;11438;52.044;8.716;2023-12-20T04:14:53;10.30;99.90
22544;DHT22;11438;52.044;8.716;2023-12-20T04:17:18;10.30;99.90
22544;DHT22;11438;52.044;8.716;2023-12-20T04:19:44;10.30;99.90
22544;DHT22;11438;52.044;8.716;2023-12-20T04:22:09;10.30;99.90
22544;DHT22;11438;52.044;8.716;2023-12-20T04:24:35;10.30;99.90
22544;DHT22;11438;52.044;8.716;2023-12-20T04:27:01;10.30;99.90
22544;DHT22;11438;52.044;8.716;2023-12-20T04:29:27;10.30;99.90
22544;DHT22;11438;52.044;8.716;2023-12-20T04:31:52;10.20;99.90
22544;DHT22;11438;52.044;8.716;2023-12-20T04:34:18;10.20;99.90
22544;DHT22;11438;52.044;8.716;2023-12-20T04:36:44;10.30;99.90
22544;DHT22;11438;52.044;8.716;2023-12-20T04:39:11;10.20;99.90
22544;DHT22;11438;52.044;8.716;2023-12-20T04:41:36;10.20;99.90
22544;DHT22;11438;52.044;8.716;2023-12-20T04:44:02;10.20;99.90
22544;DHT22;11438;52.044;8.716;2023-12-20T04:46:27;10.20;99.90
22544;DHT22;11438;52.044;8.716;2023-12-20T04:48:53;10.20;99.90
22544;DHT22;11438;52.044;8.716;2023-12-20T04:51:18;10.20;99.90
22544;DHT22;11438;52.044;8.716;2023-12-20T04:53:44;10.20;99.90
22544;DHT22;11438;52.044;8.716;2023-12-20T04:56:09;10.20;99.90
22544;DHT22;11438;52.044;8.716;2023-12-20T04:58:35;10.20;99.90
22544;DHT22;11438;52.044;8.716;2023-12-20T05:01:00;10.20;99.90
22544;DHT22;11438;52.044;8.716;2023-12-20T05:03:26;10.20;99.90
22544;DHT22;11438;52.044;8.716;2023-12-20T05:05:51;10.20;99.90
22544;DHT22;11438;52.044;8.716;2023-12-20T05:08:17;10.20;99.90
22544;DHT22;11438;52.044;8.716;2023-12-20T05:10:42;10.20;99.90
22544;DHT22;11438;52.044;8.716;2023-12-20T05:13:08;10.20;99.90
22544;DHT22;11438;52.044;8.716;2023-12-20T05:15:33;10.20;99.90
22544;DHT22;11438;52.044;8.716;2023-12-20T05:17:59;10.20;99.90
22544;DHT22;11438;52.044;8.716;2023-12-20T05:20:24;10.20;99.90
22544;DHT22;11438;52.044;8.716;2023-12-20T05:22:50;10.20;99.90
22544;DHT22;11438;52.044;8.716;2023-12-20T05:25:15;10.20;99.90
22544;DHT22;11438;52.044;8.716;2023-12-20T05:27:41;10.20;99.90
22544;DHT22;11438;52.044;8.716;2023-12-20T05:30:07;10.20;99.90
22544;DHT22;11438;52.044;8.716;2023-12-20T05:32:32;10.20;99.90
22544;DHT22;11438;52.044;8.716;2023-12-20T05:34:58;10.20;99.90
22544;DHT22;11438;52.044;8.716;2023-12-20T05:37:23;10.20;99.90
22544;DHT22;11438;52.044;8.716;2023-12-20T05:39:49;10.20;99.90
22544;DHT22;11438;52.044;8.716;2023-12-20T05:42:14;10.20;99.90
22544;DHT22;11438;52.044;8.716;2023-12-20T05:44:40;10.20;99.90
22544;DHT22;11438;52.044;8.716;2023-12-20T05:47:05;10.20;99.90
22544;DHT22;11438;52.044;8.716;2023-12-20T05:49:31;10.20;99.90
22544;DHT22;11438;52.044;8.716;2023-12-20T05:51:56;10.20;99.90
22544;DHT22;11438;52.044;8.716;2023-12-20T05:54:22;10.20;99.90
22544;DHT22;11438;52.044;8.716;2023-12-20T05:56:48;10.20;99.90
22544;DHT22;11438;52.044;8.716;2023-12-20T05:59:13;10.20;99.90
22544;DHT22;11438;52.044;8.716;2023-12-20T06:01:39;10.20;99.90
22544;DHT22;11438;52.044;8.716;2023-12-20T06:04:05;10.10;99.90
22544;DHT22;11438;52.044;8.716;2023-12-20T06:06:30;10.20;99.90
22544;DHT22;11438;52.044;8.716;2023-12-20T06:08:56;10.10;99.90
22544;DHT22;11438;52.044;8.716;2023-12-20T06:11:21;10.10;99.90
22544;DHT22;11438;52.044;8.716;2023-12-20T06:13:47;10.10;99.90
22544;DHT22;11438;52.044;8.716;2023-12-20T06:16:14;10.10;99.90
22544;DHT22;11438;52.044;8.716;2023-12-20T06:18:40;10.10;99.90
22544;DHT22;11438;52.044;8.716;2023-12-20T06:21:05;10.10;99.90
22544;DHT22;11438;52.044;8.716;2023-12-20T06:23:32;10.10;99.90
22544;DHT22;11438;52.044;8.716;2023-12-20T06:25:58;10.00;99.90
22544;DHT22;11438;52.044;8.716;2023-12-20T06:28:23;10.00;99.90
22544;DHT22;11438;52.044;8.716;2023-12-20T06:30:49;10.10;99.90
22544;DHT22;11438;52.044;8.716;2023-12-20T06:33:15;10.00;99.90
22544;DHT22;11438;52.044;8.716;2023-12-20T06:35:40;10.10;99.90
22544;DHT22;11438;52.044;8.716;2023-12-20T06:38:06;10.10;99.90
22544;DHT22;11438;52.044;8.716;2023-12-20T06:40:31;10.10;99.90
22544;DHT22;11438;52.044;8.716;2023-12-20T06:42:57;10.10;99.90
22544;DHT22;11438;52.044;8.716;2023-12-20T06:45:22;10.10;99.90
22544;DHT22;11438;52.044;8.716;2023-12-20T06:47:48;10.10;99.90
22544;DHT22;11438;52.044;8.716;2023-12-20T06:50:13;10.10;99.90
22544;DHT22;11438;52.044;8.716;2023-12-20T06:52:39;10.10;99.90
22544;DHT22;11438;52.044;8.716;2023-12-20T06:55:05;10.00;99.90
22544;DHT22;11438;52.044;8.716;2023-12-20T06:57:30;10.00;99.90
22544;DHT22;11438;52.044;8.716;2023-12-20T06:59:56;10.10;99.90
22544;DHT22;11438;52.044;8.716;2023-12-20T07:02:23;10.10;99.90
22544;DHT22;11438;52.044;8.716;2023-12-20T07:04:48;10.10;99.90
22544;DHT22;11438;52.044;8.716;2023-12-20T07:07:14;10.10;99.90
22544;DHT22;11438;52.044;8.716;2023-12-20T07:09:39;10.10;99.90
22544;DHT22;11438;52.044;8.716;2023-12-20T07:12:08;10.10;99.90
22544;DHT22;11438;52.044;8.716;2023-12-20T07:14:33;10.10;99.90
22544;DHT22;11438;52.044;8.716;2023-12-20T07:16:59;10.10;99.90
22544;DHT22;11438;52.044;8.716;2023-12-20T07:19:24;10.10;99.90
22544;DHT22;11438;52.044;8.716;2023-12-20T07:21:50;10.10;99.90
22544;DHT22;11438;52.044;8.716;2023-12-20T07:24:15;10.10;99.90
22544;DHT22;11438;52.044;8.716;2023-12-20T07:26:41;10.10;99.90
22544;DHT22;11438;52.044;8.716;2023-12-20T07:29:06;10.10;99.90
22544;DHT22;11438;52.044;8.716;2023-12-20T07:31:32;10.10;99.90
22544;DHT22;11438;52.044;8.716;2023-12-20T07:33:57;10.10;99.90
22544;DHT22;11438;52.044;8.716;2023-12-20T07:36:23;10.10;99.90
22544;DHT22;11438;52.044;8.716;2023-12-20T07:38:48;10.10;99.90
22544;DHT22;11438;52.044;8.716;2023-12-20T07:41:14;10.10;99.90
22544;DHT22;11438;52.044;8.716;2023-12-20T07:43:41;10.10;99.90
22544;DHT22;11438;52.044;8.716;2023-12-20T07:46:07;10.10;99.90
22544;DHT22;11438;52.044;8.716;2023-12-20T07:48:34;10.10;99.90
22544;DHT22;11438;52.044;8.716;2023-12-20T07:51:01;10.10;99.90
22544;DHT22;11438;52.044;8.716;2023-12-20T07:53:26;10.10;99.90
22544;DHT22;11438;52.044;8.716;2023-12-20T07:55:52;10.10;99.90
22544;DHT22;11438;52.044;8.716;2023-12-20T07:58:18;10.10;99.90
22544;DHT22;11438;52.044;8.716;2023-12-20T08:00:44;10.10;99.90
22544;DHT22;11438;52.044;8.716;2023-12-20T08:03:09;10.10;99.90
22544;DHT22;11438;52.044;8.716;2023-12-20T08:05:35;10.10;99.90
22544;DHT22;11438;52.044;8.716;2023-12-20T08:08:00;10.10;99.90
22544;DHT22;11438;52.044;8.716;2023-12-20T08:10:26;10.10;99.90
22544;DHT22;11438;52.044;8.716;2023-12-20T08:12:54;10.10;99.90
22544;DHT22;11438;52.044;8.716;2023-12-20T08:15:20;10.20;99.90
22544;DHT22;11438;52.044;8.716;2023-12-20T08:17:45;10.10;99.90
22544;DHT22;11438;52.044;8.716;2023-12-20T08:20:11;10.10;99.90
22544;DHT22;11438;52.044;8.716;2023-12-20T08:22:36;10.20;99.90
22544;DHT22;11438;52.044;8.716;2023-12-20T08:25:02;10.20;99.90
22544;DHT22;11438;52.044;8.716;2023-12-20T08:27:27;10.20;99.90
22544;DHT22;11438;52.044;8.716;2023-12-20T08:29:53;10.20;99.90
22544;DHT22;11438;52.044;8.716;2023-12-20T08:32:19;10.20;99.90
22544;DHT22;11438;52.044;8.716;2023-12-20T08:34:44;10.20;99.90
22544;DHT22;11438;52.044;8.716;2023-12-20T08:37:10;10.20;99.90
22544;DHT22;11438;52.044;8.716;2023-12-20T08:39:35;10.20;99.90
22544;DHT22;11438;52.044;8.716;2023-12-20T08:42:01;10.20;99.90
22544;DHT22;11438;52.044;8.716;2023-12-20T08:44:26;10.20;99.90
22544;DHT22;11438;52.044;8.716;2023-12-20T08:46:52;10.20;99.90
22544;DHT22;11438;52.044;8.716;2023-12-20T08:49:17;10.20;99.90
22544;DHT22;11438;52.044;8.716;2023-12-20T08:51:43;10.20;99.90
22544;DHT22;11438;52.044;8.716;2023-12-20T08:54:09;10.20;99.90
22544;DHT22;11438;52.044;8.716;2023-12-20T08:56:34;10.20;99.90
22544;DHT22;11438;52.044;8.716;2023-12-20T08:59:00;10.20;99.90
22544;DHT22;11438;52.044;8.716;2023-12-20T09:01:25;10.20;99.90
22544;DHT22;11438;52.044;8.716;2023-12-20T09:03:51;10.20;99.90
22544;DHT22;11438;52.044;8.716;2023-12-20T09:06:16;10.20;99.90
22544;DHT22;11438;52.044;8.716;2023-12-20T09:08:42;10.20;99.90
22544;DHT22;11438;52.044;8.716;2023-12-20T09:11:07;10.20;99.90
22544;DHT22;11438;52.044;8.716;2023-12-20T09:13:33;10.30;99.90
22544;DHT22;11438;52.044;8.716;2023-12-20T09:15:58;10.30;99.90
22544;DHT22;11438;52.044;8.716;2023-12-20T09:18:24;10.30;99.90
22544;DHT22;11438;52.044;8.716;2023-12-20T09:20:50;10.30;99.90
22544;DHT22;11438;52.044;8.716;2023-12-20T09:23:15;10.30;99.90
22544;DHT22;11438;52.044;8.716;2023-12-20T09:25:41;10.30;99.90
22544;DHT22;11438;52.044;8.716;2023-12-20T09:28:06;10.30;99.90
22544;DHT22;11438;52.044;8.716;2023-12-20T09:30:31;10.30;99.90
22544;DHT22;11438;52.044;8.716;2023-12-20T09:32:57;10.40;99.90
22544;DHT22;11438;52.044;8.716;2023-12-20T09:35:23;10.40;99.90
22544;DHT22;11438;52.044;8.716;2023-12-20T09:37:49;10.40;99.90
22544;DHT22;11438;52.044;8.716;2023-12-20T09:40:18;10.40;99.90
22544;DHT22;11438;52.044;8.716;2023-12-20T09:42:55;10.40;99.90
22544;DHT22;11438;52.044;8.716;2023-12-20T09:45:21;10.40;99.90
22544;DHT22;11438;52.044;8.716;2023-12-20T09:47:52;10.40;99.90
22544;DHT22;11438;52.044;8.716;2023-12-20T09:50:21;10.50;99.90
22544;DHT22;11438;52.044;8.716;2023-12-20T09:52:51;10.40;99.90
22544;DHT22;11438;52.044;8.716;2023-12-20T09:55:18;10.50;99.90
22544;DHT22;11438;52.044;8.716;2023-12-20T09:57:45;10.50;99.90
22544;DHT22;11438;52.044;8.716;2023-12-20T10:00:11;10.50;99.90
22544;DHT22;11438;52.044;8.716;2023-12-20T10:02:39;10.50;99.90
22544;DHT22;11438;52.044;8.716;2023-12-20T10:05:08;10.50;99.90
22544;DHT22;11438;52.044;8.716;2023-12-20T10:07:37;10.50;99.90
22544;DHT22;11438;52.044;8.716;2023-12-20T10:10:03;10.50;99.90
22544;DHT22;11438;52.044;8.716;2023-12-20T10:12:29;10.50;99.90
22544;DHT22;11438;52.044;8.716;2023-12-20T10:14:55;10.50;99.90
22544;DHT22;11438;52.044;8.716;2023-12-20T10:17:21;10.50;99.90
22544;DHT22;11438;52.044;8.716;2023-12-20T10:19:47;10.50;99.90
22544;DHT22;11438;52.044;8.716;2023-12-20T10:22:12;10.50;99.90
22544;DHT22;11438;52.044;8.716;2023-12-20T10:24:38;10.50;99.90
22544;DHT22;11438;52.044;8.716;2023-12-20T10:27:06;10.50;99.90
22544;DHT22;11438;52.044;8.716;2023-12-20T10:29:36;10.50;99.90
22544;DHT22;11438;52.044;8.716;2023-12-20T10:32:22;10.50;99.90
22544;DHT22;11438;52.044;8.716;2023-12-20T10:34:49;10.50;99.90
22544;DHT22;11438;52.044;8.716;2023-12-20T10:37:14;10.60;99.90
22544;DHT22;11438;52.044;8.716;2023-12-20T10:39:40;10.60;99.90
22544;DHT22;11438;52.044;8.716;2023-12-20T10:42:07;10.60;99.90
22544;DHT22;11438;52.044;8.716;2023-12-20T10:44:33;10.60;99.90
22544;DHT22;11438;52.044;8.716;2023-12-20T10:46:59;10.60;99.90
22544;DHT22;11438;52.044;8.716;2023-12-20T10:49:25;10.60;99.90
22544;DHT22;11438;52.044;8.716;2023-12-20T10:51:52;10.60;99.90
22544;DHT22;11438;52.044;8.716;2023-12-20T10:54:19;10.60;99.90
22544;DHT22;11438;52.044;8.716;2023-12-20T10:56:45;10.70;99.90
22544;DHT22;11438;52.044;8.716;2023-12-20T10:59:12;10.70;99.90
22544;DHT22;11438;52.044;8.716;2023-12-20T11:01:40;10.70;99.90
22544;DHT22;11438;52.044;8.716;2023-12-20T11:04:08;10.60;99.90
22544;DHT22;11438;52.044;8.716;2023-12-20T11:06:43;10.60;99.90
22544;DHT22;11438;52.044;8.716;2023-12-20T11:09:22;10.60;99.90
22544;DHT22;11438;52.044;8.716;2023-12-20T11:11:59;10.60;99.90
22544;DHT22;11438;52.044;8.716;2023-12-20T11:14:40;10.60;99.90
22544;DHT22;11438;52.044;8.716;2023-12-20T11:17:10;10.70;99.90
22544;DHT22;11438;52.044;8.716;2023-12-20T11:22:31;10.60;99.90
22544;DHT22;11438;52.044;8.716;2023-12-20T11:25:10;10.60;99.90
22544;DHT22;11438;52.044;8.716;2023-12-20T11:27:40;10.70;99.90
22544;DHT22;11438;52.044;8.716;2023-12-20T11:30:06;10.60;99.90
22544;DHT22;11438;52.044;8.716;2023-12-20T11:32:34;10.60;99.90
22544;DHT22;11438;52.044;8.716;2023-12-20T11:35:20;10.60;99.90
22544;DHT22;11438;52.044;8.716;2023-12-20T11:37:46;10.60;99.90
22544;DHT22;11438;52.044;8.716;2023-12-20T11:40:16;10.70;99.90
22544;DHT22;11438;52.044;8.716;2023-12-20T11:42:44;10.70;99.90
22544;DHT22;11438;52.044;8.716;2023-12-20T11:45:14;10.70;99.90
22544;DHT22;11438;52.044;8.716;2023-12-20T11:47:45;10.70;99.90
22544;DHT22;11438;52.044;8.716;2023-12-20T11:50:11;10.70;99.90
22544;DHT22;11438;52.044;8.716;2023-12-20T11:52:36;10.80;99.90
22544;DHT22;11438;52.044;8.716;2023-12-20T11:55:02;10.80;99.90
22544;DHT22;11438;52.044;8.716;2023-12-20T11:57:29;10.80;99.90
22544;DHT22;11438;52.044;8.716;2023-12-20T11:59:55;10.80;99.90
22544;DHT22;11438;52.044;8.716;2023-12-20T12:02:21;10.80;99.90
22544;DHT22;11438;52.044;8.716;2023-12-20T12:04:48;10.80;99.90
22544;DHT22;11438;52.044;8.716;2023-12-20T12:07:14;10.80;99.90
22544;DHT22;11438;52.044;8.716;2023-12-20T12:09:39;10.80;99.90
22544;DHT22;11438;52.044;8.716;2023-12-20T12:12:05;10.80;99.90
22544;DHT22;11438;52.044;8.716;2023-12-20T12:14:31;10.80;99.90
22544;DHT22;11438;52.044;8.716;2023-12-20T12:16:57;10.80;99.90
22544;DHT22;11438;52.044;8.716;2023-12-20T12:19:23;10.80;99.90
22544;DHT22;11438;52.044;8.716;2023-12-20T12:21:50;10.80;99.90
22544;DHT22;11438;52.044;8.716;2023-12-20T12:24:20;10.80;99.90
22544;DHT22;11438;52.044;8.716;2023-12-20T12:26:51;10.80;99.90
22544;DHT22;11438;52.044;8.716;2023-12-20T12:29:16;10.80;99.90
22544;DHT22;11438;52.044;8.716;2023-12-20T12:31:42;10.80;99.90
22544;DHT22;11438;52.044;8.716;2023-12-20T12:34:08;10.80;99.90
22544;DHT22;11438;52.044;8.716;2023-12-20T12:36:34;10.80;99.90
22544;DHT22;11438;52.044;8.716;2023-12-20T12:39:02;10.80;99.90
22544;DHT22;11438;52.044;8.716;2023-12-20T12:41:30;10.80;99.90
22544;DHT22;11438;52.044;8.716;2023-12-20T12:43:55;10.80;99.90
22544;DHT22;11438;52.044;8.716;2023-12-20T12:46:21;10.80;99.90
22544;DHT22;11438;52.044;8.716;2023-12-20T12:48:47;10.90;99.90
22544;DHT22;11438;52.044;8.716;2023-12-20T12:51:14;10.90;99.90
22544;DHT22;11438;52.044;8.716;2023-12-20T12:53:40;10.90;99.90
22544;DHT22;11438;52.044;8.716;2023-12-20T12:56:06;10.90;99.90
22544;DHT22;11438;52.044;8.716;2023-12-20T12:58:32;10.90;99.90
22544;DHT22;11438;52.044;8.716;2023-12-20T13:00:58;11.00;99.90
22544;DHT22;11438;52.044;8.716;2023-12-20T13:03:24;10.90;99.90
22544;DHT22;11438;52.044;8.716;2023-12-20T13:05:49;10.90;99.90
22544;DHT22;11438;52.044;8.716;2023-12-20T13:08:15;10.90;99.90
22544;DHT22;11438;52.044;8.716;2023-12-20T13:10:41;10.90;99.90
22544;DHT22;11438;52.044;8.716;2023-12-20T13:13:06;10.90;99.90
22544;DHT22;11438;52.044;8.716;2023-12-20T13:15:32;10.90;99.90
22544;DHT22;11438;52.044;8.716;2023-12-20T13:17:57;10.90;99.90
22544;DHT22;11438;52.044;8.716;2023-12-20T13:20:23;10.90;99.90
22544;DHT22;11438;52.044;8.716;2023-12-20T13:22:48;10.90;99.90
22544;DHT22;11438;52.044;8.716;2023-12-20T13:25:14;10.80;99.90
22544;DHT22;11438;52.044;8.716;2023-12-20T13:27:41;10.80;99.90
22544;DHT22;11438;52.044;8.716;2023-12-20T13:30:06;10.70;99.90
22544;DHT22;11438;52.044;8.716;2023-12-20T13:32:32;10.60;99.90
22544;DHT22;11438;52.044;8.716;2023-12-20T13:34:58;10.60;99.90
22544;DHT22;11438;52.044;8.716;2023-12-20T13:37:23;10.50;99.90
22544;DHT22;11438;52.044;8.716;2023-12-20T13:39:49;10.40;99.90
22544;DHT22;11438;52.044;8.716;2023-12-20T13:42:14;10.40;99.90
22544;DHT22;11438;52.044;8.716;2023-12-20T13:44:40;10.40;99.90
22544;DHT22;11438;52.044;8.716;2023-12-20T13:47:05;10.30;99.90
22544;DHT22;11438;52.044;8.716;2023-12-20T13:49:31;10.30;99.90
22544;DHT22;11438;52.044;8.716;2023-12-20T13:51:57;10.30;99.90
22544;DHT22;11438;52.044;8.716;2023-12-20T13:54:24;10.20;99.90
22544;DHT22;11438;52.044;8.716;2023-12-20T13:56:49;10.20;99.90
22544;DHT22;11438;52.044;8.716;2023-12-20T13:59:15;10.20;99.90
22544;DHT22;11438;52.044;8.716;2023-12-20T14:01:41;10.20;99.90
22544;DHT22;11438;52.044;8.716;2023-12-20T14:04:06;10.20;99.90
22544;DHT22;11438;52.044;8.716;2023-12-20T14:06:32;10.10;99.90
22544;DHT22;11438;52.044;8.716;2023-12-20T14:08:58;10.10;99.90
22544;DHT22;11438;52.044;8.716;2023-12-20T14:11:25;10.00;99.90
22544;DHT22;11438;52.044;8.716;2023-12-20T14:13:51;10.00;99.90
22544;DHT22;11438;52.044;8.716;2023-12-20T14:16:16;10.10;99.90
22544;DHT22;11438;52.044;8.716;2023-12-20T14:18:42;10.00;99.90
22544;DHT22;11438;52.044;8.716;2023-12-20T14:21:07;10.00;99.90
22544;DHT22;11438;52.044;8.716;2023-12-20T14:23:33;10.00;99.90
22544;DHT22;11438;52.044;8.716;2023-12-20T14:25:59;10.00;99.90
22544;DHT22;11438;52.044;8.716;2023-12-20T14:28:25;10.00;99.90
22544;DHT22;11438;52.044;8.716;2023-12-20T14:30:51;10.00;99.90
22544;DHT22;11438;52.044;8.716;2023-12-20T14:33:16;10.00;99.90
22544;DHT22;11438;52.044;8.716;2023-12-20T14:35:41;10.10;99.90
22544;DHT22;11438;52.044;8.716;2023-12-20T14:38:08;10.00;99.90
22544;DHT22;11438;52.044;8.716;2023-12-20T14:40:33;10.00;99.90
22544;DHT22;11438;52.044;8.716;2023-12-20T14:42:59;10.00;99.90
22544;DHT22;11438;52.044;8.716;2023-12-20T14:45:25;10.00;99.90
22544;DHT22;11438;52.044;8.716;2023-12-20T14:47:51;10.10;99.90
22544;DHT22;11438;52.044;8.716;2023-12-20T14:50:16;10.00;99.90
22544;DHT22;11438;52.044;8.716;2023-12-20T14:52:45;10.00;99.90
22544;DHT22;11438;52.044;8.716;2023-12-20T14:55:11;10.00;99.90
22544;DHT22;11438;52.044;8.716;2023-12-20T14:57:36;10.00;99.90
22544;DHT22;11438;52.044;8.716;2023-12-20T15:00:02;10.00;99.90
22544;DHT22;11438;52.044;8.716;2023-12-20T15:02:28;10.00;99.90
22544;DHT22;11438;52.044;8.716;2023-12-20T15:04:53;10.00;99.90
22544;DHT22;11438;52.044;8.716;2023-12-20T15:07:19;10.00;99.90
22544;DHT22;11438;52.044;8.716;2023-12-20T15:09:44;10.00;99.90
22544;DHT22;11438;52.044;8.716;2023-12-20T15:12:12;10.00;99.90
22544;DHT22;11438;52.044;8.716;2023-12-20T15:14:38;9.90;99.90
22544;DHT22;11438;52.044;8.716;2023-12-20T15:17:03;9.90;99.90
22544;DHT22;11438;52.044;8.716;2023-12-20T15:19:30;9.90;99.90
22544;DHT22;11438;52.044;8.716;2023-12-20T15:21:56;9.90;99.90
22544;DHT22;11438;52.044;8.716;2023-12-20T15:24:21;10.00;99.90
22544;DHT22;11438;52.044;8.716;2023-12-20T15:26:53;10.00;99.90